createdAt,value
2022-08-03T00:02:19.842Z,7.10
2022-08-03T00:04:47.825Z,7.00
2022-08-03T00:07:16.118Z,7.40
2022-08-03T00:09:43.802Z,7.90
2022-08-03T00:12:11.557Z,7.70
2022-08-03T00:14:39.220Z,7.20
2022-08-03T00:17:06.932Z,7.00
2022-08-03T00:19:34.926Z,6.10
2022-08-03T00:22:02.760Z,6.80
2022-08-03T00:24:31.478Z,7.80
2022-08-03T00:26:59.094Z,7.70
2022-08-03T00:29:26.711Z,7.30
2022-08-03T00:31:59.355Z,6.80
2022-08-03T00:34:35.244Z,7.20
2022-08-03T00:37:04.520Z,6.70
2022-08-03T00:39:32.164Z,6.80
2022-08-03T00:42:05.674Z,7.30
2022-08-03T00:44:40.931Z,7.50
2022-08-03T00:47:10.306Z,6.60
2022-08-03T00:49:39.571Z,6.70
2022-08-03T00:52:11.097Z,6.50
2022-08-03T00:54:39.627Z,6.50
2022-08-03T00:57:07.710Z,6.80
2022-08-03T00:59:35.516Z,7.10
2022-08-03T01:02:03.230Z,6.10
2022-08-03T01:04:30.906Z,6.40
2022-08-03T01:07:11.487Z,7.00
2022-08-03T01:10:09.130Z,6.80
2022-08-03T01:14:01.289Z,7.10
2022-08-03T01:16:17.766Z,6.40
2022-08-03T01:18:51.086Z,6.30
2022-08-03T01:21:40.509Z,6.80
2022-08-03T01:24:32.067Z,7.00
2022-08-03T01:27:11.733Z,7.10
2022-08-03T01:29:57.429Z,7.80
2022-08-03T01:33:01.116Z,7.10
2022-08-03T01:35:53.187Z,6.70
2022-08-03T01:38:35.794Z,6.70
2022-08-03T01:41:12.018Z,7.10
2022-08-03T01:43:58.919Z,7.30
2022-08-03T01:46:31.509Z,7.20
2022-08-03T01:49:00.258Z,6.90
2022-08-03T01:51:56.646Z,6.10
2022-08-03T01:54:29.002Z,6.90
2022-08-03T01:56:58.540Z,7.30
2022-08-03T01:59:27.850Z,7.10
2022-08-03T02:02:15.524Z,7.40
2022-08-03T02:04:46.824Z,7.00
2022-08-03T02:07:16.349Z,6.20
2022-08-03T02:09:46.945Z,6.80
2022-08-03T02:12:16.039Z,7.40
2022-08-03T02:14:45.915Z,6.80
2022-08-03T02:17:15.271Z,6.40
2022-08-03T02:19:44.005Z,6.20
2022-08-03T02:22:13.367Z,6.20
2022-08-03T02:24:41.264Z,6.20
2022-08-03T02:27:23.645Z,7.40
2022-08-03T02:29:56.563Z,7.50
2022-08-03T02:32:31.342Z,7.10
2022-08-03T02:35:01.120Z,6.40
2022-08-03T02:37:32.408Z,6.90
2022-08-03T02:40:02.999Z,6.70
2022-08-03T02:42:32.950Z,7.20
2022-08-03T02:45:04.483Z,6.80
2022-08-03T02:47:53.478Z,7.00
2022-08-03T02:50:21.929Z,5.60
2022-08-03T02:52:51.468Z,6.70
2022-08-03T02:55:21.290Z,6.60
2022-08-03T02:57:49.949Z,6.70
2022-08-03T03:00:19.380Z,6.40
2022-08-03T03:03:02.751Z,6.90
2022-08-03T03:05:54.926Z,5.40
2022-08-03T03:08:25.934Z,5.90
2022-08-03T03:11:01.078Z,7.30
2022-08-03T03:13:30.393Z,7.30
2022-08-03T03:16:01.764Z,7.20
2022-08-03T03:18:31.462Z,7.50
2022-08-03T03:21:00.782Z,6.70
2022-08-03T03:23:29.315Z,7.40
2022-08-03T03:25:58.655Z,7.10
2022-08-03T03:28:26.834Z,8.10
2022-08-03T03:30:54.974Z,8.30
2022-08-03T03:33:23.081Z,8.90
2022-08-03T03:35:51.935Z,7.50
2022-08-03T03:38:20.369Z,7.20
2022-08-03T03:40:48.541Z,6.60
2022-08-03T03:43:18.545Z,7.20
2022-08-03T03:45:47.813Z,8.20
2022-08-03T03:48:16.238Z,7.70
2022-08-03T03:50:44.768Z,7.10
2022-08-03T03:53:14.339Z,7.10
2022-08-03T03:55:59.456Z,7.00
2022-08-03T03:58:31.646Z,7.80
2022-08-03T04:01:00.046Z,7.80
2022-08-03T04:03:28.147Z,7.60
2022-08-03T04:06:14.519Z,7.80
2022-08-03T04:09:01.105Z,7.90
2022-08-03T04:11:35.140Z,9.00
2022-08-03T04:14:28.993Z,9.90
2022-08-03T04:17:03.401Z,9.30
2022-08-03T04:19:35.951Z,10.10
2022-08-03T04:22:10.487Z,10.20
2022-08-03T04:24:43.171Z,10.80
2022-08-03T04:27:14.153Z,11.20
2022-08-03T04:29:48.536Z,10.70
2022-08-03T04:32:18.197Z,10.10
2022-08-03T04:34:47.124Z,10.40
2022-08-03T04:37:47.845Z,10.40
2022-08-03T04:40:22.795Z,10.10
2022-08-03T04:42:53.733Z,10.10
2022-08-03T04:45:22.196Z,9.70
2022-08-03T04:47:50.607Z,9.10
2022-08-03T04:50:21.709Z,9.10
2022-08-03T04:52:49.739Z,8.20
2022-08-03T04:55:30.903Z,9.20
2022-08-03T04:58:00.079Z,8.90
2022-08-03T05:00:28.095Z,8.50
2022-08-03T05:02:55.845Z,8.30
2022-08-03T05:05:23.756Z,7.90
2022-08-03T05:07:51.932Z,8.50
2022-08-03T05:10:20.831Z,8.90
2022-08-03T05:12:48.989Z,8.00
2022-08-03T05:15:16.636Z,8.30
2022-08-03T05:17:44.299Z,7.50
2022-08-03T05:20:12.469Z,8.20
2022-08-03T05:22:40.118Z,8.40
2022-08-03T05:25:08.059Z,8.60
2022-08-03T05:27:36.159Z,9.10
2022-08-03T05:30:29.848Z,9.20
2022-08-03T05:32:53.555Z,8.30
2022-08-03T05:36:02.639Z,8.20
2022-08-03T05:38:09.304Z,8.30
2022-08-03T05:40:37.051Z,8.10
2022-08-03T05:43:04.890Z,9.00
2022-08-03T05:45:32.576Z,9.40
2022-08-03T05:48:00.329Z,8.50
2022-08-03T05:50:28.003Z,8.60
2022-08-03T05:52:59.467Z,7.80
2022-08-03T05:55:27.214Z,8.50
2022-08-03T05:57:55.271Z,9.40
2022-08-03T06:00:26.960Z,9.00
2022-08-03T06:02:54.745Z,9.10
2022-08-03T06:05:22.429Z,8.30
2022-08-03T06:07:50.046Z,8.70
2022-08-03T06:10:36.528Z,9.40
2022-08-03T06:13:05.554Z,9.10
2022-08-03T06:15:35.419Z,10.20
2022-08-03T06:18:03.190Z,8.80
2022-08-03T06:20:30.816Z,8.60
2022-08-03T06:23:00.790Z,8.90
2022-08-03T06:25:29.466Z,9.40
2022-08-03T06:27:57.224Z,11.30
2022-08-03T06:30:25.670Z,10.30
2022-08-03T06:32:53.384Z,10.30
2022-08-03T06:35:21.091Z,10.40
2022-08-03T06:37:50.345Z,10.10
2022-08-03T06:40:21.690Z,8.60
2022-08-03T06:42:52.221Z,7.90
2022-08-03T06:45:19.937Z,7.90
2022-08-03T06:47:47.671Z,8.90
2022-08-03T06:50:16.950Z,9.60
2022-08-03T06:52:45.757Z,8.60
2022-08-03T06:55:13.486Z,8.80
2022-08-03T06:57:41.091Z,8.90
2022-08-03T07:00:12.437Z,7.40
2022-08-03T07:02:40.896Z,6.50
2022-08-03T07:05:09.774Z,6.90
2022-08-03T07:07:38.227Z,7.20
2022-08-03T07:10:07.216Z,7.40
2022-08-03T07:12:35.534Z,8.30
2022-08-03T07:15:04.846Z,7.00
2022-08-03T07:17:34.767Z,7.00
2022-08-03T07:20:05.366Z,6.60
2022-08-03T07:22:33.627Z,6.20
2022-08-03T07:25:01.760Z,6.30
2022-08-03T07:27:30.452Z,5.50
2022-08-03T07:29:58.910Z,5.60
2022-08-03T07:32:28.559Z,5.50
2022-08-03T07:35:00.604Z,5.10
2022-08-03T07:39:57.907Z,4.80
2022-08-03T07:42:26.655Z,5.20
2022-08-03T07:44:54.500Z,4.90
2022-08-03T07:47:25.056Z,5.20
2022-08-03T07:49:53.046Z,5.30
2022-08-03T07:52:39.905Z,5.00
2022-08-03T07:55:10.865Z,4.90
2022-08-03T07:57:39.423Z,4.50
2022-08-03T08:00:14.488Z,4.80
2022-08-03T08:02:43.558Z,5.10
2022-08-03T08:05:12.655Z,4.70
2022-08-03T08:07:40.902Z,4.90
2022-08-03T08:10:10.177Z,4.80
2022-08-03T08:12:39.434Z,4.50
2022-08-03T08:15:09.220Z,5.00
2022-08-03T08:17:52.310Z,4.40
2022-08-03T08:20:27.780Z,3.40
2022-08-03T08:23:01.963Z,3.40
2022-08-03T08:25:31.736Z,3.10
2022-08-03T08:28:22.362Z,3.50
2022-08-03T08:30:52.122Z,3.60
2022-08-03T08:33:23.581Z,3.50
2022-08-03T08:35:53.557Z,3.40
2022-08-03T08:38:22.121Z,3.50
2022-08-03T08:40:50.893Z,3.40
2022-08-03T08:43:18.833Z,3.10
2022-08-03T08:45:51.237Z,3.20
2022-08-03T08:48:24.982Z,3.20
2022-08-03T08:50:54.369Z,3.10
2022-08-03T08:53:27.674Z,2.90
2022-08-03T08:56:00.723Z,2.60
2022-08-03T08:58:30.990Z,2.60
2022-08-03T09:00:59.264Z,1.90
2022-08-03T09:03:29.600Z,1.90
2022-08-03T09:06:00.747Z,1.90
2022-08-03T09:08:32.359Z,2.00
2022-08-03T09:11:00.160Z,2.10
2022-08-03T09:13:29.314Z,2.00
2022-08-03T09:16:17.106Z,1.60
2022-08-03T09:18:49.846Z,2.10
2022-08-03T09:21:31.698Z,2.00
2022-08-03T09:24:04.319Z,2.00
2022-08-03T09:26:37.219Z,2.10
2022-08-03T09:31:47.129Z,2.20
2022-08-03T09:34:17.404Z,2.10
2022-08-03T09:36:49.974Z,2.00
2022-08-03T09:39:40.558Z,1.50
2022-08-03T09:44:52.207Z,1.50
2022-08-03T09:47:30.874Z,1.50
2022-08-03T09:50:09.377Z,1.20
2022-08-03T09:52:49.919Z,1.10
2022-08-03T09:56:34.031Z,1.00
2022-08-03T09:58:14.420Z,1.10
2022-08-03T10:00:59.102Z,0.90
2022-08-03T10:03:32.142Z,1.00
2022-08-03T10:06:13.972Z,1.00
2022-08-03T10:08:41.638Z,0.80
2022-08-03T10:11:09.336Z,0.70
2022-08-03T10:13:38.067Z,0.80
2022-08-03T10:16:22.695Z,0.80
2022-08-03T10:18:52.881Z,0.90
2022-08-03T10:21:21.821Z,0.90
2022-08-03T10:23:51.036Z,0.90
2022-08-03T10:26:22.739Z,1.10
2022-08-03T10:28:53.563Z,0.80
2022-08-03T10:31:22.531Z,1.00
2022-08-03T10:33:53.133Z,1.10
2022-08-03T10:36:27.441Z,0.90
2022-08-03T10:38:57.228Z,1.00
2022-08-03T10:41:31.143Z,0.90
2022-08-03T10:44:05.555Z,0.80
2022-08-03T10:46:34.623Z,1.00
2022-08-03T10:49:03.355Z,1.00
2022-08-03T10:51:52.757Z,1.00
2022-08-03T10:54:57.942Z,0.90
2022-08-03T10:57:49.747Z,0.90
2022-08-03T11:00:23.309Z,1.60
2022-08-03T11:03:06.303Z,1.50
2022-08-03T11:05:42.802Z,1.40
2022-08-03T11:08:19.644Z,1.40
2022-08-03T11:10:49.208Z,1.70
2022-08-03T11:13:19.325Z,1.70
2022-08-03T11:15:48.913Z,1.60
2022-08-03T11:18:17.554Z,2.00
2022-08-03T11:20:56.950Z,2.00
2022-08-03T11:24:03.321Z,1.50
2022-08-03T11:26:31.754Z,1.90
2022-08-03T11:29:29.485Z,1.70
2022-08-03T11:31:57.475Z,1.60
2022-08-03T11:34:25.323Z,1.90
2022-08-03T11:37:23.312Z,1.70
2022-08-03T11:39:54.511Z,1.50
2022-08-03T11:42:22.112Z,1.50
2022-08-03T11:44:51.407Z,1.50
2022-08-03T11:47:21.202Z,1.40
2022-08-03T11:49:50.947Z,1.20
2022-08-03T11:52:19.570Z,1.40
2022-08-03T11:54:56.748Z,1.40
2022-08-03T11:59:01.773Z,1.30
2022-08-03T12:00:29.117Z,1.10
2022-08-03T12:02:59.466Z,1.20
2022-08-03T12:05:37.769Z,1.40
2022-08-03T12:08:08.074Z,1.80
2022-08-03T12:10:37.268Z,1.40
2022-08-03T12:14:45.506Z,1.70
2022-08-03T12:15:59.170Z,1.40
2022-08-03T12:18:27.094Z,1.40
2022-08-03T12:21:08.438Z,1.40
2022-08-03T12:26:09.135Z,1.30
2022-08-03T12:28:38.540Z,1.30
2022-08-03T12:31:09.376Z,1.50
2022-08-03T12:33:55.897Z,2.00
2022-08-03T12:36:24.127Z,1.60
2022-08-03T12:39:07.115Z,1.80
2022-08-03T12:41:36.832Z,1.90
2022-08-03T12:44:07.139Z,1.80
2022-08-03T12:46:37.065Z,1.80
2022-08-03T12:49:11.311Z,1.60
2022-08-03T12:52:05.356Z,1.70
2022-08-03T12:54:36.120Z,1.50
2022-08-03T12:57:15.574Z,1.80
2022-08-03T12:59:52.814Z,1.80
2022-08-03T13:02:26.520Z,1.80
2022-08-03T13:04:55.136Z,2.20
2022-08-03T13:07:23.477Z,1.70
2022-08-03T13:09:53.653Z,1.80
2022-08-03T13:12:24.290Z,2.10
2022-08-03T13:14:55.696Z,1.90
2022-08-03T13:17:24.504Z,1.70
2022-08-03T13:19:53.352Z,1.80
2022-08-03T13:22:23.730Z,1.60
2022-08-03T13:24:53.567Z,1.90
2022-08-03T13:28:04.863Z,1.80
2022-08-03T13:30:09.756Z,1.70
2022-08-03T13:32:37.508Z,1.90
2022-08-03T13:35:05.891Z,1.90
2022-08-03T13:37:33.810Z,1.60
2022-08-03T13:40:04.744Z,1.80
2022-08-03T13:42:35.331Z,2.00
2022-08-03T13:45:04.715Z,1.80
2022-08-03T13:47:32.657Z,2.00
2022-08-03T13:50:02.778Z,1.70
2022-08-03T13:52:33.291Z,2.20
2022-08-03T13:55:02.379Z,2.00
2022-08-03T13:58:04.969Z,2.10
2022-08-03T14:00:27.595Z,2.30
2022-08-03T14:03:12.205Z,2.00
2022-08-03T14:05:42.848Z,2.00
2022-08-03T14:08:11.165Z,2.00
2022-08-03T14:10:44.066Z,1.60
2022-08-03T14:13:16.012Z,2.00
2022-08-03T14:15:49.917Z,2.00
2022-08-03T14:18:28.839Z,2.20
2022-08-03T14:21:06.882Z,2.10
2022-08-03T14:23:37.723Z,2.00
2022-08-03T14:26:09.527Z,2.00
2022-08-03T14:32:10.193Z,3.70
2022-08-03T14:33:52.750Z,2.00
2022-08-03T14:36:20.457Z,2.00
2022-08-03T14:38:48.241Z,2.00
2022-08-03T14:41:20.069Z,2.10
2022-08-03T14:44:00.493Z,2.30
2022-08-03T14:46:29.952Z,2.10
2022-08-03T14:50:33.447Z,2.20
2022-08-03T14:51:53.352Z,2.40
2022-08-03T14:54:22.753Z,2.10
2022-08-03T14:56:50.877Z,2.20
2022-08-03T14:59:18.516Z,2.20
2022-08-03T15:02:06.231Z,2.20
2022-08-03T15:04:33.933Z,2.00
2022-08-03T15:07:01.628Z,2.10
2022-08-03T15:09:29.343Z,2.10
2022-08-03T15:11:57.052Z,2.30
2022-08-03T15:14:32.371Z,2.40
2022-08-03T15:17:02.500Z,2.10
2022-08-03T15:20:03.242Z,2.50
2022-08-03T15:22:20.756Z,2.30
2022-08-03T15:24:52.787Z,2.00
2022-08-03T15:27:20.665Z,2.30
2022-08-03T15:30:09.460Z,2.20
2022-08-03T15:32:36.441Z,2.30
2022-08-03T15:35:04.414Z,2.20
2022-08-03T15:37:32.064Z,2.20
2022-08-03T15:40:00.931Z,3.00
2022-08-03T15:42:30.177Z,2.50
2022-08-03T15:44:58.330Z,2.40
2022-08-03T15:47:26.607Z,2.50
2022-08-03T15:49:54.327Z,2.30
2022-08-03T15:52:22.057Z,2.50
2022-08-03T15:54:49.763Z,2.50
2022-08-03T15:57:17.518Z,2.20
2022-08-03T15:59:45.208Z,2.10
2022-08-03T16:02:13.225Z,2.20
2022-08-03T16:04:40.868Z,2.40
2022-08-03T16:07:08.983Z,2.30
2022-08-03T16:09:43.861Z,2.40
2022-08-03T16:12:16.565Z,2.40
2022-08-03T16:14:52.857Z,4.00
2022-08-03T16:17:22.465Z,3.80
2022-08-03T16:19:54.842Z,3.10
2022-08-03T16:22:24.268Z,2.30
2022-08-03T16:24:55.662Z,2.70
2022-08-03T16:27:55.787Z,2.60
2022-08-03T16:30:16.598Z,2.80
2022-08-03T16:32:45.851Z,2.60
2022-08-03T16:35:19.194Z,3.00
2022-08-03T16:37:54.610Z,2.80
2022-08-03T16:40:25.272Z,2.50
2022-08-03T16:42:53.209Z,2.50
2022-08-03T16:45:20.850Z,2.40
2022-08-03T16:48:01.299Z,2.50
2022-08-03T16:50:32.917Z,2.50
2022-08-03T16:53:00.757Z,2.90
2022-08-03T16:55:48.477Z,3.00
2022-08-03T16:58:17.954Z,3.10
2022-08-03T17:00:52.369Z,4.00
2022-08-03T17:03:24.843Z,3.20
2022-08-03T17:05:53.289Z,2.90
2022-08-03T17:08:27.491Z,4.10
2022-08-03T17:10:56.310Z,3.60
2022-08-03T17:13:39.468Z,2.70
2022-08-03T17:16:10.301Z,3.00
2022-08-03T17:18:47.280Z,3.00
2022-08-03T17:21:16.118Z,3.00
2022-08-03T17:23:58.645Z,3.00
2022-08-03T17:26:30.361Z,3.00
2022-08-03T17:29:12.515Z,2.70
2022-08-03T17:31:48.837Z,3.00
2022-08-03T17:34:19.377Z,3.30
2022-08-03T17:37:03.804Z,3.00
2022-08-03T17:39:57.655Z,3.10
2022-08-03T17:42:30.466Z,3.10
2022-08-03T17:45:07.649Z,3.20
2022-08-03T17:47:41.332Z,3.20
2022-08-03T17:50:25.378Z,3.30
2022-08-03T17:53:06.818Z,4.40
2022-08-03T17:55:56.441Z,3.70
2022-08-03T17:58:41.446Z,3.70
2022-08-03T18:02:00.554Z,3.50
2022-08-03T18:04:29.736Z,3.40
2022-08-03T18:06:59.856Z,4.20
2022-08-03T18:10:03.976Z,3.70
2022-08-03T18:12:27.386Z,4.10
2022-08-03T18:15:01.611Z,3.80
2022-08-03T18:17:58.334Z,4.20
2022-08-03T18:20:32.774Z,3.80
2022-08-03T18:23:07.197Z,4.30
2022-08-03T18:25:38.138Z,4.50
2022-08-03T18:28:14.622Z,4.80
2022-08-03T18:30:53.283Z,5.00
2022-08-03T18:34:18.285Z,4.70
2022-08-03T18:36:17.575Z,5.70
2022-08-03T18:38:48.182Z,4.40
2022-08-03T18:41:30.646Z,5.70
2022-08-03T18:44:06.870Z,4.40
2022-08-03T18:46:41.234Z,4.20
2022-08-03T18:49:47.545Z,4.20
2022-08-03T18:52:20.367Z,3.70
2022-08-03T18:55:21.562Z,4.20
2022-08-03T18:58:27.164Z,4.40
2022-08-03T19:01:00.914Z,4.50
2022-08-03T19:03:43.067Z,4.60
2022-08-03T19:06:20.047Z,5.10
2022-08-03T19:09:04.494Z,4.70
2022-08-03T19:12:13.336Z,4.60
2022-08-03T19:14:34.825Z,4.90
2022-08-03T19:17:08.629Z,5.00
2022-08-03T19:19:43.361Z,4.20
2022-08-03T19:22:16.199Z,4.10
2022-08-03T19:24:46.030Z,4.80
2022-08-03T19:27:16.141Z,4.40
2022-08-03T19:29:59.480Z,4.70
2022-08-03T19:32:30.638Z,5.20
2022-08-03T19:35:00.285Z,5.20
2022-08-03T19:37:33.295Z,4.90
2022-08-03T19:40:12.553Z,5.30
2022-08-03T19:42:45.674Z,5.10
2022-08-03T19:45:21.489Z,5.10
2022-08-03T19:47:56.509Z,4.60
2022-08-03T19:50:26.529Z,4.30
2022-08-03T19:52:58.436Z,4.70
2022-08-03T19:55:28.823Z,5.10
2022-08-03T19:58:03.202Z,5.40
2022-08-03T20:00:37.008Z,5.80
2022-08-03T20:03:23.341Z,5.50
2022-08-03T20:05:54.161Z,5.00
2022-08-03T20:08:22.767Z,4.40
2022-08-03T20:10:51.251Z,4.50
2022-08-03T20:13:19.752Z,5.10
2022-08-03T20:15:47.678Z,5.00
2022-08-03T20:18:21.253Z,5.50
2022-08-03T20:20:52.593Z,6.00
2022-08-03T20:23:21.124Z,5.50
2022-08-03T20:25:58.571Z,5.00
2022-08-03T20:28:32.785Z,5.00
2022-08-03T20:31:02.081Z,4.90
2022-08-03T20:33:48.703Z,5.20
2022-08-03T20:36:18.665Z,5.40
2022-08-03T20:38:48.164Z,5.60
2022-08-03T20:41:17.419Z,4.70
2022-08-03T20:43:46.240Z,4.70
2022-08-03T20:46:30.007Z,4.80
2022-08-03T20:49:05.308Z,4.70
2022-08-03T20:51:49.895Z,4.90
2022-08-03T20:54:30.964Z,4.70
2022-08-03T20:57:04.472Z,4.60
2022-08-03T20:59:50.434Z,4.20
2022-08-03T21:02:29.588Z,4.80
2022-08-03T21:05:03.181Z,3.50
2022-08-03T21:08:05.037Z,3.70
2022-08-03T21:10:38.079Z,4.10
2022-08-03T21:13:31.696Z,4.30
2022-08-03T21:16:12.647Z,4.30
2022-08-03T21:18:50.486Z,4.10
2022-08-03T21:21:20.820Z,3.70
2022-08-03T21:23:54.550Z,4.30
2022-08-03T21:26:25.367Z,3.80
2022-08-03T21:28:55.256Z,4.10
2022-08-03T21:31:26.223Z,3.70
2022-08-03T21:34:04.632Z,3.80
2022-08-03T21:36:35.910Z,4.10
2022-08-03T21:39:06.966Z,3.80
2022-08-03T21:41:36.502Z,3.40
2022-08-03T21:44:05.131Z,3.60
2022-08-03T21:46:38.347Z,3.90
2022-08-03T21:50:05.455Z,3.60
2022-08-03T21:52:05.192Z,3.60
2022-08-03T21:54:41.996Z,4.20
2022-08-03T21:57:19.257Z,3.90
2022-08-03T21:59:55.804Z,3.90
2022-08-03T22:02:30.138Z,3.90
2022-08-03T22:05:00.035Z,3.60
2022-08-03T22:07:29.258Z,3.60
2022-08-03T22:09:59.441Z,3.80
2022-08-03T22:12:29.673Z,3.60
2022-08-03T22:15:00.831Z,3.70
2022-08-03T22:17:54.686Z,4.00
2022-08-03T22:20:20.502Z,3.90
2022-08-03T22:22:55.470Z,4.20
2022-08-03T22:25:31.497Z,5.00
2022-08-03T22:28:04.558Z,4.20
2022-08-03T22:30:33.335Z,3.80
2022-08-03T22:33:04.115Z,4.00
2022-08-03T22:35:44.191Z,3.80
2022-08-03T22:38:18.148Z,3.60
2022-08-03T22:40:51.153Z,4.30
2022-08-03T22:43:27.857Z,4.40
2022-08-03T22:46:10.303Z,4.10
2022-08-03T22:48:41.719Z,4.60
2022-08-03T22:51:09.653Z,4.70
2022-08-03T22:53:40.731Z,4.40
2022-08-03T22:56:09.018Z,4.40
2022-08-03T22:58:36.798Z,4.20
2022-08-03T23:01:09.825Z,4.40
2022-08-03T23:04:00.481Z,4.00
2022-08-03T23:06:37.713Z,4.70
2022-08-03T23:09:11.616Z,4.70
2022-08-03T23:11:45.317Z,4.50
2022-08-03T23:14:15.589Z,4.50
2022-08-03T23:16:44.798Z,4.40
2022-08-03T23:19:17.334Z,4.60
2022-08-03T23:22:03.000Z,4.20
2022-08-03T23:24:36.600Z,4.20
2022-08-03T23:29:35.455Z,3.90
2022-08-03T23:32:05.066Z,4.40
2022-08-03T23:34:51.949Z,4.60
2022-08-03T23:37:22.657Z,4.80
2022-08-03T23:39:52.624Z,5.20
2022-08-03T23:42:21.749Z,4.60
2022-08-03T23:44:54.732Z,4.50
2022-08-03T23:47:23.180Z,4.90
2022-08-03T23:49:51.561Z,4.40
2022-08-03T23:52:57.510Z,5.00
2022-08-03T23:55:56.015Z,4.60
2022-08-03T23:58:50.193Z,4.40
